ENKR

Kirkenes , Høybuktmoen Airport

Kirkenes, Norway
TAF ENKR 151100Z 1512/1521 19015KT 9999 SCT012 BKN020 TEMPO 1512/1515 4000 -RASN BKN007
Issued Valid From Valid To
Nov-15 @ 11:00 UTC
(2 hours ago)
Nov-15 @ 12:00 UTC
(42 minutes ago)
Nov-15 @ 21:00 UTC
(in 8 hours)
Nov-15 @ 12:00 to Nov-15 @ 21:00
TAF ENKR 151100Z 1512/1521 19015KT 9999 SCT012 BKN020
Wind Visibility Clouds
190° at 15 knots 10,000+ meters
  • Scattered at 1,200' AGL
  • Broken at 2,000' AGL
Temporary Nov-15 @ 12:00 to Nov-15 @ 15:00
TEMPO 1512/1515 4000 -RASN BKN007
Visibility Clouds Conditions
4,007 meters
  • Broken at 700' AGL
  • Light Rain
  • Light Snow
TAF ENKR 151100Z 1512/1521 19015KT 9999 SCT012 BKN020 TEMPO 1512/1515 4000 -RASN BKN007
Issued Nov-15 @ 11:00 UTC
(2 hours ago)
Valid From Nov-15 @ 12:00 UTC
(42 minutes ago)
Valid To Nov-15 @ 21:00 UTC
(in 8 hours)
Nov-15 @ 12:00 - Nov-15 @ 21:00
Wind Visibility
190° at 15 knots 10,000+ meters
Clouds
  • Scattered at 1,200' AGL
  • Broken at 2,000' AGL
Temporary Nov-15 @ 12:00 - Nov-15 @ 15:00
Clouds
  • Broken at 700' AGL
Conditions
  • Light Rain
  • Light Snow